TVS4118 HEGN-HKMO
Flight info
| Callsign | TVS4118 |
|---|---|
| Flight time | 4h 32m |
| Altitude | 37000 |
| Route | HGD V730 MAK T55 DEDLI M999 JDW G650 KONET M308 GETOL T129 ALEMU UN301 IBNOK |
| Aircraft | B738/M-VGDW/C |
Departure
| Time | 2026-04-22 12:14 |
|---|---|
| Airport | Hurghada International Airport (HEGN) |
Arrival
| Time | 2026-04-22 16:47 |
|---|---|
| Airport | Moi International Airport (HKMO) |
| Time | Latitude | Longitude | Altitude | Speed | Heading |
|---|---|---|---|---|---|
| 2026-04-22 11:53 | 27.17718 | 33.80475 | 60 ft | 0 kts | 256° |
| 2026-04-22 12:05 | 27.17720 | 33.80481 | 56 ft | 2 kts | 256° |
| 2026-04-22 12:05 | 27.17723 | 33.80497 | 52 ft | 2 kts | 256° |
| 2026-04-22 12:06 | 27.17727 | 33.80515 | 58 ft | 2 kts | 256° |
| 2026-04-22 12:06 | 27.17731 | 33.80533 | 52 ft | 2 kts | 256° |
| 2026-04-22 12:06 | 27.17735 | 33.80551 | 56 ft | 2 kts | 256° |
| 2026-04-22 12:06 | 27.17737 | 33.80564 | 56 ft | 0 kts | 256° |
| 2026-04-22 12:09 | 27.17719 | 33.80556 | 58 ft | 8 kts | 174° |
| 2026-04-22 12:09 | 27.17628 | 33.80582 | 58 ft | 17 kts | 158° |
| 2026-04-22 12:09 | 27.17522 | 33.80611 | 53 ft | 13 kts | 187° |
| 2026-04-22 12:09 | 27.17474 | 33.80528 | 58 ft | 15 kts | 255° |
| 2026-04-22 12:10 | 27.17451 | 33.80391 | 60 ft | 19 kts | 272° |
| 2026-04-22 12:10 | 27.17431 | 33.80249 | 57 ft | 21 kts | 234° |
| 2026-04-22 12:10 | 27.17362 | 33.80078 | 61 ft | 25 kts | 255° |
| 2026-04-22 12:10 | 27.17319 | 33.79892 | 60 ft | 25 kts | 255° |
| 2026-04-22 12:11 | 27.17277 | 33.79709 | 58 ft | 25 kts | 255° |
| 2026-04-22 12:11 | 27.17232 | 33.79531 | 58 ft | 19 kts | 242° |
| 2026-04-22 12:11 | 27.17102 | 33.79528 | 55 ft | 26 kts | 165° |
| 2026-04-22 12:11 | 27.16921 | 33.79582 | 56 ft | 27 kts | 165° |
| 2026-04-22 12:12 | 27.16738 | 33.79636 | 54 ft | 29 kts | 165° |
| 2026-04-22 12:12 | 27.16545 | 33.79694 | 56 ft | 28 kts | 165° |
| 2026-04-22 12:12 | 27.16361 | 33.79748 | 57 ft | 26 kts | 165° |
| 2026-04-22 12:12 | 27.16190 | 33.79800 | 56 ft | 25 kts | 165° |
| 2026-04-22 12:13 | 27.16029 | 33.79847 | 52 ft | 23 kts | 165° |
| 2026-04-22 12:13 | 27.15937 | 33.79804 | 57 ft | 17 kts | 254° |
| 2026-04-22 12:13 | 27.15939 | 33.79679 | 56 ft | 18 kts | 317° |
| 2026-04-22 12:13 | 27.16107 | 33.79622 | 59 ft | 45 kts | 345° |
| 2026-04-22 12:14 | 27.16613 | 33.79474 | 57 ft | 103 kts | 345° |
| 2026-04-22 12:14 | 27.17466 | 33.79221 | 51 ft | 148 kts | 345° |
| 2026-04-22 12:14 | 27.18577 | 33.78896 | 83 ft | 180 kts | 346° |
| 2026-04-22 12:14 | 27.19758 | 33.78532 | 813 ft | 166 kts | 343° |
| 2026-04-22 12:15 | 27.20877 | 33.78220 | 1324 ft | 176 kts | 347° |
| 2026-04-22 12:15 | 27.22149 | 33.77904 | 1590 ft | 200 kts | 347° |
| 2026-04-22 12:15 | 27.23588 | 33.77532 | 1820 ft | 221 kts | 347° |
| 2026-04-22 12:15 | 27.25069 | 33.77141 | 2066 ft | 240 kts | 347° |
| 2026-04-22 12:16 | 27.26731 | 33.76702 | 2518 ft | 253 kts | 347° |
| 2026-04-22 12:16 | 27.28476 | 33.76234 | 3075 ft | 262 kts | 347° |
| 2026-04-22 12:16 | 27.30263 | 33.75723 | 3749 ft | 266 kts | 340° |
| 2026-04-22 12:16 | 27.31815 | 33.74603 | 4361 ft | 271 kts | 313° |
| 2026-04-22 12:17 | 27.32748 | 33.72768 | 4985 ft | 274 kts | 284° |
| 2026-04-22 12:17 | 27.32818 | 33.70627 | 5633 ft | 277 kts | 259° |
| 2026-04-22 12:17 | 27.32289 | 33.68532 | 6309 ft | 281 kts | 252° |
| 2026-04-22 12:17 | 27.31652 | 33.66441 | 6955 ft | 283 kts | 251° |
| 2026-04-22 12:18 | 27.31003 | 33.64347 | 7607 ft | 284 kts | 251° |
| 2026-04-22 12:18 | 27.30356 | 33.62234 | 7940 ft | 286 kts | 252° |
| 2026-04-22 12:18 | 27.29721 | 33.60121 | 8054 ft | 281 kts | 252° |
| 2026-04-22 12:18 | 27.29098 | 33.58025 | 8474 ft | 288 kts | 252° |
| 2026-04-22 12:19 | 27.28469 | 33.55899 | 9143 ft | 292 kts | 252° |
| 2026-04-22 12:19 | 27.27826 | 33.53724 | 9856 ft | 294 kts | 253° |
| 2026-04-22 12:19 | 27.26932 | 33.51690 | 10528 ft | 297 kts | 231° |
| 2026-04-22 12:19 | 27.25326 | 33.50257 | 11292 ft | 299 kts | 205° |
| 2026-04-22 12:20 | 27.23293 | 33.49764 | 11982 ft | 304 kts | 180° |
| 2026-04-22 12:20 | 27.21192 | 33.50163 | 12686 ft | 309 kts | 168° |
| 2026-04-22 12:20 | 27.19094 | 33.50792 | 13358 ft | 314 kts | 167° |
| 2026-04-22 12:20 | 27.16981 | 33.51457 | 14074 ft | 316 kts | 167° |
| 2026-04-22 12:21 | 27.14847 | 33.52126 | 14783 ft | 320 kts | 167° |
| 2026-04-22 12:21 | 27.12686 | 33.52792 | 15461 ft | 323 kts | 167° |
| 2026-04-22 12:21 | 27.10506 | 33.53454 | 16152 ft | 326 kts | 168° |
| 2026-04-22 12:21 | 27.08303 | 33.54118 | 16855 ft | 329 kts | 168° |
| 2026-04-22 12:22 | 27.06072 | 33.54783 | 17496 ft | 333 kts | 169° |
| 2026-04-22 12:22 | 27.03814 | 33.55455 | 18122 ft | 338 kts | 169° |
| 2026-04-22 12:22 | 27.01526 | 33.56135 | 18686 ft | 342 kts | 169° |
| 2026-04-22 12:22 | 26.99224 | 33.56843 | 19311 ft | 345 kts | 165° |
| 2026-04-22 12:23 | 26.97091 | 33.58165 | 19710 ft | 364 kts | 143° |
| 2026-04-22 12:23 | 26.95181 | 33.60150 | 19855 ft | 384 kts | 139° |
| 2026-04-22 12:23 | 26.93246 | 33.62321 | 19963 ft | 403 kts | 138° |
| 2026-04-22 12:23 | 26.91902 | 33.63860 | 20045 ft | 414 kts | 137° |
| 2026-04-22 12:24 | 26.89877 | 33.66189 | 20182 ft | 430 kts | 137° |
| 2026-04-22 12:24 | 26.87733 | 33.68649 | 20470 ft | 440 kts | 138° |
| 2026-04-22 12:24 | 26.85578 | 33.71103 | 20900 ft | 444 kts | 138° |
| 2026-04-22 12:24 | 26.83423 | 33.73542 | 21358 ft | 447 kts | 139° |
| 2026-04-22 12:25 | 26.81202 | 33.76041 | 21773 ft | 450 kts | 139° |
| 2026-04-22 12:25 | 26.79007 | 33.78501 | 22183 ft | 454 kts | 139° |
| 2026-04-22 12:25 | 26.76736 | 33.81039 | 22559 ft | 458 kts | 140° |
| 2026-04-22 12:25 | 26.74493 | 33.83541 | 22988 ft | 462 kts | 140° |
| 2026-04-22 12:26 | 26.72211 | 33.86085 | 23390 ft | 466 kts | 140° |
| 2026-04-22 12:26 | 26.69904 | 33.88653 | 23744 ft | 469 kts | 140° |
| 2026-04-22 12:26 | 26.67591 | 33.91229 | 24087 ft | 472 kts | 140° |
| 2026-04-22 12:26 | 26.65253 | 33.93831 | 24406 ft | 475 kts | 141° |
| 2026-04-22 12:27 | 26.62907 | 33.96441 | 24774 ft | 477 kts | 141° |
| 2026-04-22 12:27 | 26.60544 | 33.99069 | 25120 ft | 479 kts | 141° |
| 2026-04-22 12:27 | 26.58166 | 34.01711 | 25437 ft | 482 kts | 141° |
| 2026-04-22 12:27 | 26.55781 | 34.04359 | 25747 ft | 485 kts | 141° |
| 2026-04-22 12:28 | 26.53386 | 34.07017 | 26070 ft | 488 kts | 141° |
| 2026-04-22 12:28 | 26.50958 | 34.09710 | 26382 ft | 490 kts | 142° |
| 2026-04-22 12:28 | 26.48533 | 34.12397 | 26682 ft | 493 kts | 142° |
| 2026-04-22 12:28 | 26.46092 | 34.15101 | 26976 ft | 495 kts | 142° |
| 2026-04-22 12:29 | 26.43635 | 34.17820 | 27274 ft | 498 kts | 142° |
| 2026-04-22 12:29 | 26.41176 | 34.20540 | 27567 ft | 500 kts | 142° |
| 2026-04-22 12:29 | 26.38698 | 34.23280 | 27852 ft | 502 kts | 142° |
| 2026-04-22 12:29 | 26.36204 | 34.26035 | 27877 ft | 506 kts | 142° |
| 2026-04-22 12:30 | 26.31200 | 34.31562 | 27871 ft | 503 kts | 142° |
| 2026-04-22 12:30 | 26.28748 | 34.34271 | 27869 ft | 502 kts | 142° |
| 2026-04-22 12:30 | 26.26260 | 34.37015 | 27879 ft | 502 kts | 142° |
| 2026-04-22 12:31 | 26.23734 | 34.39796 | 27882 ft | 503 kts | 142° |
| 2026-04-22 12:31 | 26.21280 | 34.42495 | 27910 ft | 506 kts | 142° |
| 2026-04-22 12:31 | 26.18724 | 34.45303 | 28154 ft | 508 kts | 142° |
| 2026-04-22 12:31 | 26.16210 | 34.48065 | 28518 ft | 508 kts | 142° |
| 2026-04-22 12:32 | 26.13724 | 34.50796 | 28816 ft | 510 kts | 143° |
| 2026-04-22 12:32 | 26.08655 | 34.56357 | 29273 ft | 515 kts | 143° |
| 2026-04-22 12:32 | 26.06062 | 34.59199 | 29522 ft | 517 kts | 143° |
| 2026-04-22 12:33 | 26.03528 | 34.61976 | 29865 ft | 517 kts | 143° |
| 2026-04-22 12:33 | 26.00972 | 34.64778 | 30210 ft | 516 kts | 143° |
| 2026-04-22 12:33 | 25.98412 | 34.67581 | 30475 ft | 516 kts | 143° |
| 2026-04-22 12:33 | 25.95853 | 34.70379 | 30702 ft | 518 kts | 144° |
| 2026-04-22 12:34 | 25.93278 | 34.73192 | 30932 ft | 519 kts | 144° |
| 2026-04-22 12:34 | 25.90867 | 34.75824 | 31182 ft | 520 kts | 144° |
| 2026-04-22 12:34 | 25.88278 | 34.78650 | 31466 ft | 520 kts | 144° |
| 2026-04-22 12:34 | 25.85700 | 34.81462 | 31735 ft | 520 kts | 144° |
| 2026-04-22 12:35 | 25.83148 | 34.84245 | 31976 ft | 520 kts | 145° |
| 2026-04-22 12:35 | 25.80560 | 34.87064 | 32243 ft | 521 kts | 145° |
| 2026-04-22 12:35 | 25.77981 | 34.89873 | 32524 ft | 521 kts | 145° |
| 2026-04-22 12:35 | 25.75387 | 34.92695 | 32812 ft | 520 kts | 145° |
| 2026-04-22 12:36 | 25.72809 | 34.95500 | 33087 ft | 520 kts | 146° |
| 2026-04-22 12:36 | 25.70221 | 34.98312 | 33367 ft | 520 kts | 146° |
| 2026-04-22 12:36 | 25.67626 | 35.01130 | 33682 ft | 519 kts | 146° |
| 2026-04-22 12:36 | 25.65049 | 35.03928 | 33970 ft | 518 kts | 146° |
| 2026-04-22 12:37 | 25.62478 | 35.06718 | 34233 ft | 516 kts | 146° |
| 2026-04-22 12:37 | 25.59914 | 35.09498 | 34498 ft | 515 kts | 146° |
| 2026-04-22 12:37 | 25.57355 | 35.12271 | 34766 ft | 513 kts | 146° |
| 2026-04-22 12:37 | 25.54806 | 35.15030 | 35024 ft | 512 kts | 146° |
| 2026-04-22 12:38 | 25.52258 | 35.17786 | 35257 ft | 512 kts | 145° |
| 2026-04-22 12:38 | 25.49742 | 35.20504 | 35479 ft | 511 kts | 145° |
| 2026-04-22 12:38 | 25.47199 | 35.23251 | 35721 ft | 510 kts | 145° |
| 2026-04-22 12:38 | 25.44659 | 35.25993 | 35980 ft | 509 kts | 145° |
| 2026-04-22 12:39 | 25.42119 | 35.28736 | 36282 ft | 506 kts | 145° |
| 2026-04-22 12:39 | 25.37093 | 35.34156 | 36783 ft | 503 kts | 145° |
| 2026-04-22 12:40 | 25.32044 | 35.39584 | 36830 ft | 507 kts | 145° |
| 2026-04-22 12:40 | 25.27002 | 35.45005 | 36828 ft | 504 kts | 145° |
| 2026-04-22 12:41 | 25.21987 | 35.50397 | 36830 ft | 501 kts | 145° |
| 2026-04-22 12:41 | 25.17034 | 35.55712 | 36827 ft | 499 kts | 145° |
| 2026-04-22 12:42 | 25.12052 | 35.61050 | 36830 ft | 497 kts | 145° |
| 2026-04-22 12:42 | 25.07082 | 35.66366 | 36833 ft | 497 kts | 145° |
| 2026-04-22 12:43 | 25.02105 | 35.71682 | 36829 ft | 498 kts | 145° |
| 2026-04-22 12:43 | 24.97153 | 35.76967 | 36836 ft | 499 kts | 145° |
| 2026-04-22 12:44 | 24.92154 | 35.82297 | 36828 ft | 501 kts | 145° |
| 2026-04-22 12:44 | 24.87125 | 35.87653 | 36827 ft | 503 kts | 145° |
| 2026-04-22 12:45 | 24.82088 | 35.93011 | 36820 ft | 504 kts | 145° |
| 2026-04-22 12:45 | 24.77028 | 35.98389 | 36822 ft | 505 kts | 145° |
| 2026-04-22 12:46 | 24.71986 | 36.03740 | 36821 ft | 506 kts | 145° |
| 2026-04-22 12:46 | 24.66917 | 36.09116 | 36820 ft | 506 kts | 145° |
| 2026-04-22 12:47 | 24.61844 | 36.14487 | 36821 ft | 506 kts | 145° |
| 2026-04-22 12:47 | 24.56776 | 36.19849 | 36817 ft | 505 kts | 145° |
| 2026-04-22 12:48 | 24.51714 | 36.25195 | 36813 ft | 504 kts | 145° |
| 2026-04-22 12:48 | 24.46662 | 36.30526 | 36812 ft | 503 kts | 145° |
| 2026-04-22 12:49 | 24.41647 | 36.35812 | 36813 ft | 502 kts | 145° |
| 2026-04-22 12:49 | 24.36610 | 36.41113 | 36818 ft | 500 kts | 145° |
| 2026-04-22 12:50 | 24.31587 | 36.46394 | 36809 ft | 499 kts | 145° |
| 2026-04-22 12:50 | 24.26572 | 36.51660 | 36811 ft | 498 kts | 145° |
| 2026-04-22 12:51 | 24.21598 | 36.56877 | 36814 ft | 498 kts | 145° |
| 2026-04-22 12:51 | 24.16587 | 36.62127 | 36812 ft | 498 kts | 145° |
| 2026-04-22 12:52 | 24.11580 | 36.67366 | 36811 ft | 498 kts | 145° |
| 2026-04-22 12:52 | 24.06565 | 36.72608 | 36815 ft | 498 kts | 145° |
| 2026-04-22 12:53 | 24.01536 | 36.77859 | 36811 ft | 499 kts | 145° |
| 2026-04-22 12:53 | 23.96507 | 36.83103 | 36811 ft | 500 kts | 145° |
| 2026-04-22 12:54 | 23.91508 | 36.88311 | 36813 ft | 500 kts | 145° |
| 2026-04-22 12:54 | 23.86468 | 36.93556 | 36810 ft | 501 kts | 145° |
| 2026-04-22 12:55 | 23.81413 | 36.98811 | 36811 ft | 501 kts | 145° |
| 2026-04-22 12:55 | 23.76360 | 37.04057 | 36806 ft | 501 kts | 145° |
| 2026-04-22 12:56 | 23.71299 | 37.09306 | 36810 ft | 501 kts | 145° |
| 2026-04-22 12:56 | 23.66236 | 37.14552 | 36810 ft | 501 kts | 145° |
| 2026-04-22 12:57 | 23.61180 | 37.19785 | 36811 ft | 501 kts | 145° |
| 2026-04-22 12:57 | 23.56153 | 37.24981 | 36807 ft | 500 kts | 145° |
| 2026-04-22 12:58 | 23.51099 | 37.30199 | 36804 ft | 500 kts | 145° |
| 2026-04-22 12:58 | 23.46051 | 37.35406 | 36806 ft | 499 kts | 145° |
| 2026-04-22 12:59 | 23.41001 | 37.40608 | 36804 ft | 498 kts | 145° |
| 2026-04-22 12:59 | 23.35966 | 37.45789 | 36806 ft | 498 kts | 145° |
| 2026-04-22 13:00 | 23.30935 | 37.50960 | 36806 ft | 497 kts | 145° |
| 2026-04-22 13:00 | 23.25906 | 37.56125 | 36804 ft | 497 kts | 145° |
| 2026-04-22 13:01 | 23.20882 | 37.61277 | 36804 ft | 496 kts | 145° |
| 2026-04-22 13:01 | 23.15889 | 37.66392 | 36803 ft | 496 kts | 145° |
| 2026-04-22 13:02 | 23.10871 | 37.71528 | 36796 ft | 496 kts | 145° |
| 2026-04-22 13:02 | 23.05843 | 37.76668 | 36804 ft | 496 kts | 145° |
| 2026-04-22 13:03 | 23.00817 | 37.81801 | 36795 ft | 496 kts | 145° |
| 2026-04-22 13:03 | 22.95784 | 37.86935 | 36791 ft | 497 kts | 145° |
| 2026-04-22 13:04 | 22.90736 | 37.92079 | 36800 ft | 497 kts | 144° |
| 2026-04-22 13:04 | 22.85681 | 37.97224 | 36803 ft | 498 kts | 144° |
| 2026-04-22 13:05 | 22.80646 | 38.02345 | 36797 ft | 499 kts | 144° |
| 2026-04-22 13:05 | 22.75571 | 38.07500 | 36798 ft | 500 kts | 144° |
| 2026-04-22 13:06 | 22.70485 | 38.12661 | 36799 ft | 501 kts | 144° |
| 2026-04-22 13:06 | 22.65395 | 38.17821 | 36796 ft | 501 kts | 144° |
| 2026-04-22 13:07 | 22.61148 | 38.22122 | 36794 ft | 502 kts | 144° |
| 2026-04-22 13:07 | 22.56068 | 38.27261 | 36791 ft | 502 kts | 144° |
| 2026-04-22 13:08 | 22.50927 | 38.32458 | 36792 ft | 502 kts | 144° |
| 2026-04-22 13:08 | 22.45856 | 38.37577 | 36788 ft | 502 kts | 144° |
| 2026-04-22 13:09 | 22.40744 | 38.42732 | 36790 ft | 502 kts | 144° |
| 2026-04-22 13:09 | 22.35735 | 38.47779 | 36790 ft | 501 kts | 144° |
| 2026-04-22 13:10 | 22.30623 | 38.52924 | 36782 ft | 501 kts | 144° |
| 2026-04-22 13:10 | 22.25518 | 38.58055 | 36788 ft | 501 kts | 144° |
| 2026-04-22 13:11 | 22.20017 | 38.62359 | 36797 ft | 477 kts | 165° |
| 2026-04-22 13:11 | 22.16959 | 38.63616 | 36791 ft | 465 kts | 173° |
| 2026-04-22 13:11 | 22.13874 | 38.64318 | 36782 ft | 453 kts | 182° |
| 2026-04-22 13:12 | 22.07630 | 38.65136 | 36786 ft | 453 kts | 182° |
| 2026-04-22 13:12 | 22.01357 | 38.65959 | 36780 ft | 454 kts | 182° |
| 2026-04-22 13:13 | 21.95086 | 38.66819 | 36780 ft | 456 kts | 182° |
| 2026-04-22 13:13 | 21.88771 | 38.67704 | 36781 ft | 457 kts | 182° |
| 2026-04-22 13:14 | 21.82447 | 38.68595 | 36786 ft | 458 kts | 182° |
| 2026-04-22 13:14 | 21.76124 | 38.69483 | 36786 ft | 459 kts | 182° |
| 2026-04-22 13:15 | 21.69768 | 38.70375 | 36788 ft | 461 kts | 181° |
| 2026-04-22 13:15 | 21.63418 | 38.71264 | 36792 ft | 461 kts | 181° |
| 2026-04-22 13:16 | 21.57038 | 38.72157 | 36785 ft | 462 kts | 181° |
| 2026-04-22 13:16 | 21.50654 | 38.73050 | 36779 ft | 462 kts | 181° |
| 2026-04-22 13:17 | 21.44265 | 38.73943 | 36781 ft | 462 kts | 181° |
| 2026-04-22 13:17 | 21.37926 | 38.74828 | 36779 ft | 462 kts | 181° |
| 2026-04-22 13:18 | 21.31556 | 38.75717 | 36781 ft | 461 kts | 181° |
| 2026-04-22 13:18 | 21.25170 | 38.76607 | 36775 ft | 461 kts | 181° |
| 2026-04-22 13:19 | 21.18813 | 38.77492 | 36778 ft | 460 kts | 181° |
| 2026-04-22 13:19 | 21.12466 | 38.78375 | 36780 ft | 459 kts | 181° |
| 2026-04-22 13:20 | 21.06127 | 38.79256 | 36778 ft | 459 kts | 181° |
| 2026-04-22 13:20 | 20.99793 | 38.80135 | 36780 ft | 458 kts | 181° |
| 2026-04-22 13:21 | 20.93465 | 38.81013 | 36783 ft | 458 kts | 182° |
| 2026-04-22 13:21 | 20.87145 | 38.81888 | 36771 ft | 458 kts | 181° |
| 2026-04-22 13:22 | 20.80860 | 38.82759 | 36780 ft | 458 kts | 181° |
| 2026-04-22 13:22 | 20.74551 | 38.83631 | 36772 ft | 458 kts | 181° |
| 2026-04-22 13:23 | 20.68221 | 38.84507 | 36784 ft | 458 kts | 181° |
| 2026-04-22 13:23 | 20.61901 | 38.85379 | 36780 ft | 458 kts | 181° |
| 2026-04-22 13:24 | 20.55607 | 38.86248 | 36777 ft | 459 kts | 181° |
| 2026-04-22 13:24 | 20.49269 | 38.87122 | 36774 ft | 459 kts | 181° |
| 2026-04-22 13:25 | 20.42925 | 38.87996 | 36772 ft | 459 kts | 181° |
| 2026-04-22 13:25 | 20.36618 | 38.88864 | 36779 ft | 460 kts | 181° |
| 2026-04-22 13:26 | 20.30262 | 38.89739 | 36777 ft | 460 kts | 181° |
| 2026-04-22 13:26 | 20.23902 | 38.90613 | 36773 ft | 460 kts | 181° |
| 2026-04-22 13:27 | 20.17554 | 38.91485 | 36770 ft | 461 kts | 181° |
| 2026-04-22 13:27 | 20.11191 | 38.92358 | 36773 ft | 461 kts | 181° |
| 2026-04-22 13:28 | 20.04820 | 38.93232 | 36776 ft | 461 kts | 181° |
| 2026-04-22 13:28 | 19.98455 | 38.94104 | 36768 ft | 461 kts | 181° |
| 2026-04-22 13:29 | 19.92136 | 38.94969 | 36773 ft | 461 kts | 181° |
| 2026-04-22 13:29 | 19.85754 | 38.95842 | 36769 ft | 461 kts | 181° |
| 2026-04-22 13:30 | 19.79379 | 38.96713 | 36773 ft | 461 kts | 181° |
| 2026-04-22 13:30 | 19.73019 | 38.97581 | 36767 ft | 461 kts | 181° |
| 2026-04-22 13:31 | 19.66685 | 38.98446 | 36765 ft | 461 kts | 181° |
| 2026-04-22 13:31 | 19.60313 | 38.99315 | 36769 ft | 462 kts | 181° |
| 2026-04-22 13:32 | 19.53933 | 39.00184 | 36770 ft | 462 kts | 181° |
| 2026-04-22 13:32 | 19.47544 | 39.01053 | 36770 ft | 462 kts | 181° |
| 2026-04-22 13:33 | 19.41162 | 39.01922 | 36770 ft | 462 kts | 181° |
| 2026-04-22 13:33 | 19.34779 | 39.02789 | 36770 ft | 462 kts | 181° |
| 2026-04-22 13:34 | 19.28427 | 39.03652 | 36761 ft | 463 kts | 181° |
| 2026-04-22 13:34 | 19.22002 | 39.04524 | 36758 ft | 463 kts | 181° |
| 2026-04-22 13:35 | 19.15618 | 39.05390 | 36769 ft | 463 kts | 181° |
| 2026-04-22 13:35 | 19.09303 | 39.05752 | 36778 ft | 450 kts | 191° |
| 2026-04-22 13:36 | 19.03063 | 39.05370 | 36769 ft | 449 kts | 192° |
| 2026-04-22 13:36 | 18.96814 | 39.04955 | 36759 ft | 450 kts | 192° |
| 2026-04-22 13:37 | 18.90563 | 39.04581 | 36763 ft | 450 kts | 191° |
| 2026-04-22 13:37 | 18.84301 | 39.04230 | 36761 ft | 450 kts | 191° |
| 2026-04-22 13:38 | 18.78045 | 39.03885 | 36759 ft | 450 kts | 191° |
| 2026-04-22 13:38 | 18.68654 | 39.03365 | 36762 ft | 450 kts | 191° |
| 2026-04-22 13:39 | 18.62436 | 39.03021 | 36759 ft | 450 kts | 191° |
| 2026-04-22 13:39 | 18.56188 | 39.02674 | 36762 ft | 450 kts | 191° |
| 2026-04-22 13:40 | 18.49931 | 39.02328 | 36758 ft | 450 kts | 191° |
| 2026-04-22 13:40 | 18.43676 | 39.01982 | 36761 ft | 450 kts | 191° |
| 2026-04-22 13:41 | 18.37430 | 39.01637 | 36757 ft | 449 kts | 191° |
| 2026-04-22 13:41 | 18.31176 | 39.01292 | 36757 ft | 449 kts | 191° |
| 2026-04-22 13:42 | 18.24942 | 39.00948 | 36757 ft | 449 kts | 191° |
| 2026-04-22 13:42 | 18.18698 | 39.00603 | 36756 ft | 448 kts | 191° |
| 2026-04-22 13:43 | 18.12457 | 39.00306 | 36755 ft | 449 kts | 190° |
| 2026-04-22 13:43 | 18.06240 | 39.00096 | 36754 ft | 449 kts | 190° |
| 2026-04-22 13:44 | 17.99994 | 38.99888 | 36754 ft | 449 kts | 190° |
| 2026-04-22 13:44 | 17.93744 | 38.99669 | 36756 ft | 448 kts | 190° |
| 2026-04-22 13:45 | 17.87539 | 38.99445 | 36754 ft | 448 kts | 190° |
| 2026-04-22 13:45 | 17.81307 | 38.99220 | 36754 ft | 448 kts | 190° |
| 2026-04-22 13:46 | 17.75066 | 38.98996 | 36756 ft | 448 kts | 190° |
| 2026-04-22 13:46 | 17.68828 | 38.98772 | 36755 ft | 448 kts | 190° |
| 2026-04-22 13:47 | 17.62599 | 38.98548 | 36756 ft | 448 kts | 190° |
| 2026-04-22 13:47 | 17.56357 | 38.98324 | 36755 ft | 448 kts | 190° |
| 2026-04-22 13:48 | 17.50118 | 38.98100 | 36755 ft | 448 kts | 190° |
| 2026-04-22 13:48 | 17.43890 | 38.97877 | 36755 ft | 448 kts | 190° |
| 2026-04-22 13:49 | 17.37689 | 38.97653 | 36757 ft | 448 kts | 190° |
| 2026-04-22 13:49 | 17.31458 | 38.97425 | 36752 ft | 448 kts | 190° |
| 2026-04-22 13:50 | 17.25225 | 38.97196 | 36756 ft | 448 kts | 190° |
| 2026-04-22 13:50 | 17.20034 | 38.97007 | 36753 ft | 448 kts | 189° |
| 2026-04-22 13:51 | 17.13804 | 38.96779 | 36759 ft | 448 kts | 189° |
| 2026-04-22 13:51 | 17.07593 | 38.96553 | 36761 ft | 448 kts | 189° |
| 2026-04-22 13:52 | 17.01334 | 38.96324 | 36759 ft | 448 kts | 189° |
| 2026-04-22 13:52 | 16.95089 | 38.96097 | 36758 ft | 448 kts | 189° |
| 2026-04-22 13:53 | 16.88887 | 38.95871 | 36758 ft | 448 kts | 189° |
| 2026-04-22 13:53 | 16.82651 | 38.95645 | 36761 ft | 448 kts | 189° |
| 2026-04-22 13:54 | 16.76412 | 38.95418 | 36760 ft | 448 kts | 189° |
| 2026-04-22 13:54 | 16.70181 | 38.95191 | 36777 ft | 448 kts | 189° |
| 2026-04-22 13:55 | 16.63938 | 38.94964 | 36761 ft | 449 kts | 189° |
| 2026-04-22 13:55 | 16.57691 | 38.94737 | 36776 ft | 449 kts | 189° |
| 2026-04-22 13:56 | 16.51455 | 38.94511 | 36776 ft | 450 kts | 189° |
| 2026-04-22 13:56 | 16.45177 | 38.94284 | 36777 ft | 451 kts | 189° |
| 2026-04-22 13:57 | 16.38908 | 38.94057 | 36766 ft | 450 kts | 189° |
| 2026-04-22 13:57 | 16.32649 | 38.93831 | 36784 ft | 450 kts | 188° |
| 2026-04-22 13:58 | 16.26422 | 38.93606 | 36776 ft | 450 kts | 188° |
| 2026-04-22 13:58 | 16.20146 | 38.93380 | 36779 ft | 450 kts | 188° |
| 2026-04-22 13:59 | 16.13876 | 38.93153 | 36779 ft | 450 kts | 188° |
| 2026-04-22 13:59 | 16.07614 | 38.92927 | 36780 ft | 450 kts | 188° |
| 2026-04-22 14:00 | 16.01357 | 38.92701 | 36789 ft | 450 kts | 188° |
| 2026-04-22 14:00 | 15.95156 | 38.92475 | 36792 ft | 449 kts | 188° |
| 2026-04-22 14:01 | 15.88905 | 38.92250 | 36808 ft | 449 kts | 188° |
| 2026-04-22 14:01 | 15.82645 | 38.92026 | 36814 ft | 451 kts | 188° |
| 2026-04-22 14:02 | 15.76363 | 38.91800 | 36818 ft | 452 kts | 188° |
| 2026-04-22 14:02 | 15.70061 | 38.91574 | 36819 ft | 453 kts | 188° |
| 2026-04-22 14:03 | 15.63819 | 38.91351 | 36819 ft | 450 kts | 188° |
| 2026-04-22 14:03 | 15.57554 | 38.91126 | 36850 ft | 451 kts | 188° |
| 2026-04-22 14:04 | 15.51275 | 38.90900 | 36858 ft | 451 kts | 188° |
| 2026-04-22 14:04 | 15.44973 | 38.90673 | 36861 ft | 453 kts | 188° |
| 2026-04-22 14:05 | 15.38650 | 38.90446 | 36863 ft | 455 kts | 188° |
| 2026-04-22 14:06 | 15.29181 | 38.90107 | 36873 ft | 456 kts | 187° |
| 2026-04-22 14:06 | 15.22813 | 38.90002 | 36885 ft | 458 kts | 185° |
| 2026-04-22 14:07 | 15.16429 | 38.90032 | 36874 ft | 459 kts | 185° |
| 2026-04-22 14:07 | 15.10055 | 38.90056 | 36883 ft | 458 kts | 185° |
| 2026-04-22 14:08 | 15.03676 | 38.90058 | 36877 ft | 457 kts | 185° |
| 2026-04-22 14:08 | 14.97318 | 38.90051 | 36873 ft | 456 kts | 185° |
| 2026-04-22 14:09 | 14.90965 | 38.90043 | 36869 ft | 456 kts | 185° |
| 2026-04-22 14:09 | 14.84670 | 38.90036 | 36865 ft | 455 kts | 185° |
| 2026-04-22 14:10 | 14.78325 | 38.90029 | 36863 ft | 455 kts | 185° |
| 2026-04-22 14:10 | 14.71991 | 38.90023 | 36864 ft | 455 kts | 185° |
| 2026-04-22 14:11 | 14.65637 | 38.90016 | 36854 ft | 456 kts | 185° |
| 2026-04-22 14:11 | 14.59290 | 38.90009 | 36857 ft | 456 kts | 185° |
| 2026-04-22 14:12 | 14.52925 | 38.90003 | 36869 ft | 457 kts | 185° |
| 2026-04-22 14:12 | 14.46566 | 38.89980 | 36876 ft | 457 kts | 185° |
| 2026-04-22 14:13 | 14.40198 | 38.89905 | 36877 ft | 458 kts | 185° |
| 2026-04-22 14:13 | 14.33847 | 38.89826 | 36885 ft | 459 kts | 185° |
| 2026-04-22 14:14 | 14.27443 | 38.89754 | 36875 ft | 460 kts | 185° |
| 2026-04-22 14:14 | 14.21049 | 38.89685 | 36883 ft | 460 kts | 185° |
| 2026-04-22 14:15 | 14.14645 | 38.89616 | 36874 ft | 460 kts | 185° |
| 2026-04-22 14:15 | 14.08225 | 38.89546 | 36875 ft | 460 kts | 185° |
| 2026-04-22 14:16 | 14.01830 | 38.89472 | 36871 ft | 459 kts | 185° |
| 2026-04-22 14:16 | 13.95438 | 38.89359 | 36873 ft | 459 kts | 185° |
| 2026-04-22 14:17 | 13.89055 | 38.89238 | 36880 ft | 458 kts | 185° |
| 2026-04-22 14:17 | 13.82665 | 38.89117 | 36858 ft | 460 kts | 185° |
| 2026-04-22 14:18 | 13.76258 | 38.88999 | 36847 ft | 460 kts | 185° |
| 2026-04-22 14:18 | 13.69893 | 38.88884 | 36849 ft | 461 kts | 185° |
| 2026-04-22 14:19 | 13.63470 | 38.88769 | 36829 ft | 461 kts | 185° |
| 2026-04-22 14:19 | 13.57050 | 38.88653 | 36835 ft | 461 kts | 185° |
| 2026-04-22 14:20 | 13.47412 | 38.88478 | 36836 ft | 461 kts | 185° |
| 2026-04-22 14:20 | 13.40987 | 38.88364 | 36829 ft | 461 kts | 185° |
| 2026-04-22 14:21 | 13.31342 | 38.88191 | 36832 ft | 461 kts | 185° |
| 2026-04-22 14:22 | 13.21736 | 38.88018 | 36823 ft | 462 kts | 185° |
| 2026-04-22 14:23 | 13.12099 | 38.87845 | 36824 ft | 462 kts | 185° |
| 2026-04-22 14:23 | 13.05657 | 38.87730 | 36824 ft | 463 kts | 185° |
| 2026-04-22 14:24 | 12.99210 | 38.87614 | 36825 ft | 463 kts | 185° |
| 2026-04-22 14:24 | 12.92805 | 38.87500 | 36822 ft | 463 kts | 185° |
| 2026-04-22 14:25 | 12.86368 | 38.87338 | 36836 ft | 463 kts | 185° |
| 2026-04-22 14:25 | 12.79885 | 38.87145 | 36844 ft | 464 kts | 185° |
| 2026-04-22 14:26 | 12.73453 | 38.86957 | 36857 ft | 465 kts | 185° |
| 2026-04-22 14:26 | 12.66987 | 38.86774 | 36865 ft | 465 kts | 185° |
| 2026-04-22 14:27 | 12.60516 | 38.86594 | 36885 ft | 465 kts | 185° |
| 2026-04-22 14:27 | 12.54037 | 38.86413 | 36881 ft | 465 kts | 185° |
| 2026-04-22 14:28 | 12.47562 | 38.86232 | 36885 ft | 465 kts | 185° |
| 2026-04-22 14:28 | 12.41087 | 38.86051 | 36893 ft | 464 kts | 185° |
| 2026-04-22 14:29 | 12.34673 | 38.85871 | 36888 ft | 463 kts | 185° |
| 2026-04-22 14:29 | 12.28236 | 38.85692 | 36900 ft | 463 kts | 185° |
| 2026-04-22 14:30 | 12.21792 | 38.85514 | 36902 ft | 462 kts | 185° |
| 2026-04-22 14:30 | 12.15371 | 38.85337 | 36918 ft | 461 kts | 185° |
| 2026-04-22 14:31 | 12.08956 | 38.85159 | 36918 ft | 461 kts | 185° |
| 2026-04-22 14:31 | 12.03605 | 38.85011 | 36915 ft | 462 kts | 185° |
| 2026-04-22 14:32 | 11.97186 | 38.84834 | 36922 ft | 461 kts | 185° |
| 2026-04-22 14:32 | 11.90757 | 38.84656 | 36941 ft | 462 kts | 185° |
| 2026-04-22 14:33 | 11.84321 | 38.84479 | 36936 ft | 462 kts | 185° |
| 2026-04-22 14:33 | 11.77927 | 38.84302 | 36935 ft | 463 kts | 185° |
| 2026-04-22 14:34 | 11.71484 | 38.84125 | 36931 ft | 463 kts | 185° |
| 2026-04-22 14:34 | 11.65031 | 38.83947 | 36928 ft | 464 kts | 185° |
| 2026-04-22 14:35 | 11.58563 | 38.83769 | 36912 ft | 464 kts | 185° |
| 2026-04-22 14:35 | 11.52110 | 38.83591 | 36921 ft | 465 kts | 185° |
| 2026-04-22 14:36 | 11.45617 | 38.83412 | 36912 ft | 468 kts | 185° |
| 2026-04-22 14:36 | 11.39084 | 38.83231 | 36907 ft | 470 kts | 185° |
| 2026-04-22 14:37 | 11.32563 | 38.83048 | 36904 ft | 472 kts | 185° |
| 2026-04-22 14:37 | 11.25981 | 38.82870 | 36886 ft | 472 kts | 185° |
| 2026-04-22 14:38 | 11.19405 | 38.82691 | 36899 ft | 473 kts | 185° |
| 2026-04-22 14:38 | 11.12851 | 38.82511 | 36916 ft | 474 kts | 185° |
| 2026-04-22 14:39 | 11.06235 | 38.82329 | 36915 ft | 475 kts | 185° |
| 2026-04-22 14:39 | 10.99602 | 38.82147 | 36913 ft | 476 kts | 185° |
| 2026-04-22 14:40 | 10.89655 | 38.81874 | 36908 ft | 476 kts | 185° |
| 2026-04-22 14:40 | 10.83037 | 38.81693 | 36911 ft | 475 kts | 185° |
| 2026-04-22 14:41 | 10.76431 | 38.81511 | 36877 ft | 474 kts | 185° |
| 2026-04-22 14:41 | 10.69868 | 38.81332 | 36871 ft | 474 kts | 185° |
| 2026-04-22 14:42 | 10.63285 | 38.81151 | 36855 ft | 473 kts | 184° |
| 2026-04-22 14:42 | 10.56699 | 38.80971 | 36843 ft | 472 kts | 184° |
| 2026-04-22 14:43 | 10.50170 | 38.80794 | 36836 ft | 471 kts | 184° |
| 2026-04-22 14:43 | 10.43609 | 38.80614 | 36823 ft | 471 kts | 184° |
| 2026-04-22 14:44 | 10.37054 | 38.80434 | 36812 ft | 471 kts | 184° |
| 2026-04-22 14:44 | 10.30498 | 38.80255 | 36797 ft | 471 kts | 184° |
| 2026-04-22 14:45 | 10.23931 | 38.80075 | 36798 ft | 471 kts | 184° |
| 2026-04-22 14:45 | 10.17370 | 38.79896 | 36799 ft | 471 kts | 185° |
| 2026-04-22 14:46 | 10.10818 | 38.79717 | 36810 ft | 470 kts | 185° |
| 2026-04-22 14:46 | 10.04278 | 38.79541 | 36825 ft | 470 kts | 185° |
| 2026-04-22 14:47 | 9.97967 | 38.79368 | 36836 ft | 469 kts | 185° |
| 2026-04-22 14:47 | 9.91554 | 38.79192 | 36842 ft | 469 kts | 185° |
| 2026-04-22 14:48 | 9.85034 | 38.79015 | 36863 ft | 468 kts | 185° |
| 2026-04-22 14:48 | 9.78531 | 38.78838 | 36875 ft | 467 kts | 185° |
| 2026-04-22 14:49 | 9.72023 | 38.78660 | 36893 ft | 467 kts | 185° |
| 2026-04-22 14:49 | 9.65513 | 38.78483 | 36902 ft | 468 kts | 185° |
| 2026-04-22 14:50 | 9.58999 | 38.78306 | 36919 ft | 467 kts | 184° |
| 2026-04-22 14:50 | 9.52497 | 38.78129 | 36927 ft | 467 kts | 184° |
| 2026-04-22 14:51 | 9.46031 | 38.77953 | 36935 ft | 467 kts | 184° |
| 2026-04-22 14:51 | 9.39532 | 38.77777 | 36928 ft | 467 kts | 184° |
| 2026-04-22 14:52 | 9.33030 | 38.77600 | 36940 ft | 468 kts | 184° |
| 2026-04-22 14:52 | 9.26518 | 38.77423 | 36937 ft | 468 kts | 184° |
| 2026-04-22 14:53 | 9.19998 | 38.77246 | 36935 ft | 469 kts | 184° |
| 2026-04-22 14:53 | 9.13471 | 38.77069 | 36926 ft | 469 kts | 184° |
| 2026-04-22 14:54 | 9.07028 | 38.76236 | 36927 ft | 464 kts | 196° |
| 2026-04-22 14:54 | 9.00819 | 38.74631 | 36903 ft | 464 kts | 197° |
| 2026-04-22 14:55 | 8.94566 | 38.72990 | 36897 ft | 464 kts | 197° |
| 2026-04-22 14:55 | 8.88313 | 38.71396 | 36882 ft | 464 kts | 197° |
| 2026-04-22 14:56 | 8.82042 | 38.69823 | 36872 ft | 463 kts | 197° |
| 2026-04-22 14:56 | 8.75787 | 38.68259 | 36862 ft | 463 kts | 196° |
| 2026-04-22 14:57 | 8.69535 | 38.66695 | 36864 ft | 462 kts | 197° |
| 2026-04-22 14:57 | 8.63281 | 38.65129 | 36851 ft | 462 kts | 196° |
| 2026-04-22 14:58 | 8.57075 | 38.63575 | 36855 ft | 462 kts | 197° |
| 2026-04-22 14:58 | 8.50836 | 38.62014 | 36849 ft | 461 kts | 196° |
| 2026-04-22 14:59 | 8.44615 | 38.60458 | 36850 ft | 460 kts | 196° |
| 2026-04-22 14:59 | 8.38383 | 38.58900 | 36859 ft | 460 kts | 196° |
| 2026-04-22 15:00 | 8.32174 | 38.57348 | 36851 ft | 459 kts | 196° |
| 2026-04-22 15:00 | 8.25966 | 38.55796 | 36856 ft | 459 kts | 196° |
| 2026-04-22 15:01 | 8.19694 | 38.54546 | 36850 ft | 462 kts | 184° |
| 2026-04-22 15:01 | 8.13299 | 38.55254 | 36836 ft | 467 kts | 165° |
| 2026-04-22 15:02 | 8.07322 | 38.57271 | 36831 ft | 467 kts | 162° |
| 2026-04-22 15:02 | 8.01170 | 38.59438 | 36825 ft | 467 kts | 162° |
| 2026-04-22 15:03 | 7.94996 | 38.61571 | 36824 ft | 468 kts | 163° |
| 2026-04-22 15:03 | 7.88825 | 38.63664 | 36821 ft | 468 kts | 163° |
| 2026-04-22 15:04 | 7.82688 | 38.65733 | 36820 ft | 468 kts | 163° |
| 2026-04-22 15:04 | 7.76503 | 38.67818 | 36832 ft | 468 kts | 163° |
| 2026-04-22 15:05 | 7.70278 | 38.69917 | 36834 ft | 468 kts | 163° |
| 2026-04-22 15:05 | 7.64133 | 38.71989 | 36851 ft | 468 kts | 163° |
| 2026-04-22 15:06 | 7.57948 | 38.74074 | 36863 ft | 468 kts | 163° |
| 2026-04-22 15:06 | 7.51760 | 38.76159 | 36880 ft | 468 kts | 163° |
| 2026-04-22 15:07 | 7.45583 | 38.78240 | 36893 ft | 468 kts | 163° |
| 2026-04-22 15:07 | 7.39393 | 38.80325 | 36902 ft | 468 kts | 163° |
| 2026-04-22 15:08 | 7.33205 | 38.82409 | 36919 ft | 468 kts | 163° |
| 2026-04-22 15:08 | 7.27020 | 38.84491 | 36929 ft | 469 kts | 163° |
| 2026-04-22 15:09 | 7.20818 | 38.86578 | 36937 ft | 469 kts | 163° |
| 2026-04-22 15:09 | 7.14670 | 38.88646 | 36950 ft | 469 kts | 163° |
| 2026-04-22 15:10 | 7.08473 | 38.90731 | 36960 ft | 469 kts | 163° |
| 2026-04-22 15:10 | 7.02273 | 38.92815 | 36966 ft | 469 kts | 163° |
| 2026-04-22 15:11 | 6.96073 | 38.94899 | 36972 ft | 470 kts | 163° |
| 2026-04-22 15:11 | 6.89855 | 38.96989 | 36975 ft | 470 kts | 163° |
| 2026-04-22 15:12 | 6.83641 | 38.99076 | 36979 ft | 471 kts | 163° |
| 2026-04-22 15:12 | 6.77457 | 39.01153 | 36978 ft | 471 kts | 163° |
| 2026-04-22 15:13 | 6.71235 | 39.03243 | 36978 ft | 471 kts | 163° |
| 2026-04-22 15:13 | 6.65010 | 39.05332 | 36975 ft | 471 kts | 163° |
| 2026-04-22 15:14 | 6.58784 | 39.07422 | 36978 ft | 470 kts | 163° |
| 2026-04-22 15:14 | 6.53626 | 39.09152 | 36962 ft | 470 kts | 163° |
| 2026-04-22 15:15 | 6.47416 | 39.11235 | 36962 ft | 469 kts | 163° |
| 2026-04-22 15:15 | 6.41212 | 39.13315 | 36941 ft | 469 kts | 163° |
| 2026-04-22 15:16 | 6.35019 | 39.15392 | 36927 ft | 469 kts | 162° |
| 2026-04-22 15:16 | 6.28868 | 39.17454 | 36920 ft | 468 kts | 162° |
| 2026-04-22 15:17 | 6.22683 | 39.19526 | 36899 ft | 468 kts | 162° |
| 2026-04-22 15:17 | 6.16500 | 39.21597 | 36899 ft | 468 kts | 162° |
| 2026-04-22 15:18 | 6.10321 | 39.23667 | 36884 ft | 468 kts | 162° |
| 2026-04-22 15:18 | 6.04137 | 39.25737 | 36878 ft | 467 kts | 162° |
| 2026-04-22 15:19 | 5.97957 | 39.27806 | 36870 ft | 467 kts | 162° |
| 2026-04-22 15:19 | 5.91834 | 39.29856 | 36863 ft | 468 kts | 162° |
| 2026-04-22 15:20 | 5.85652 | 39.31924 | 36872 ft | 468 kts | 162° |
| 2026-04-22 15:20 | 5.79468 | 39.33993 | 36856 ft | 469 kts | 162° |
| 2026-04-22 15:21 | 5.73270 | 39.36067 | 36864 ft | 469 kts | 162° |
| 2026-04-22 15:21 | 5.67072 | 39.38140 | 36855 ft | 469 kts | 162° |
| 2026-04-22 15:22 | 5.60730 | 39.39644 | 36859 ft | 468 kts | 171° |
| 2026-04-22 15:22 | 5.54298 | 39.40678 | 36845 ft | 468 kts | 172° |
| 2026-04-22 15:23 | 5.47851 | 39.41703 | 36845 ft | 469 kts | 172° |
| 2026-04-22 15:23 | 5.41453 | 39.42759 | 36842 ft | 469 kts | 172° |
| 2026-04-22 15:24 | 5.34979 | 39.43848 | 36845 ft | 469 kts | 171° |
| 2026-04-22 15:24 | 5.28588 | 39.44928 | 36837 ft | 468 kts | 171° |
| 2026-04-22 15:25 | 5.22151 | 39.46014 | 36831 ft | 468 kts | 171° |
| 2026-04-22 15:25 | 5.15731 | 39.47096 | 36831 ft | 468 kts | 172° |
| 2026-04-22 15:26 | 5.09314 | 39.48176 | 36829 ft | 468 kts | 172° |
| 2026-04-22 15:26 | 5.02896 | 39.49257 | 36828 ft | 467 kts | 171° |
| 2026-04-22 15:27 | 4.96475 | 39.50338 | 36823 ft | 467 kts | 172° |
| 2026-04-22 15:27 | 4.90064 | 39.51417 | 36822 ft | 467 kts | 172° |
| 2026-04-22 15:28 | 4.83643 | 39.52497 | 36821 ft | 467 kts | 172° |
| 2026-04-22 15:28 | 4.77234 | 39.53575 | 36828 ft | 467 kts | 172° |
| 2026-04-22 15:29 | 4.70865 | 39.54647 | 36828 ft | 467 kts | 172° |
| 2026-04-22 15:30 | 4.61229 | 39.56268 | 36838 ft | 467 kts | 172° |
| 2026-04-22 15:30 | 4.54807 | 39.57347 | 36841 ft | 467 kts | 172° |
| 2026-04-22 15:31 | 4.48391 | 39.58426 | 36847 ft | 468 kts | 172° |
| 2026-04-22 15:31 | 4.41998 | 39.59500 | 36852 ft | 468 kts | 172° |
| 2026-04-22 15:32 | 4.35572 | 39.60580 | 36861 ft | 467 kts | 172° |
| 2026-04-22 15:32 | 4.29145 | 39.61660 | 36866 ft | 467 kts | 172° |
| 2026-04-22 15:33 | 4.22726 | 39.62738 | 36865 ft | 467 kts | 172° |
| 2026-04-22 15:33 | 4.16344 | 39.63810 | 36869 ft | 467 kts | 172° |
| 2026-04-22 15:34 | 4.09930 | 39.64888 | 36871 ft | 467 kts | 172° |
| 2026-04-22 15:34 | 4.03514 | 39.65965 | 36876 ft | 467 kts | 172° |
| 2026-04-22 15:35 | 3.98174 | 39.66876 | 36868 ft | 468 kts | 171° |
| 2026-04-22 15:35 | 3.90688 | 39.68288 | 36877 ft | 468 kts | 170° |
| 2026-04-22 15:36 | 3.84296 | 39.69521 | 36871 ft | 467 kts | 170° |
| 2026-04-22 15:36 | 3.77945 | 39.70731 | 36875 ft | 467 kts | 170° |
| 2026-04-22 15:37 | 3.71546 | 39.71943 | 36873 ft | 467 kts | 170° |
| 2026-04-22 15:37 | 3.65146 | 39.73151 | 36872 ft | 467 kts | 170° |
| 2026-04-22 15:38 | 3.58751 | 39.74360 | 36869 ft | 467 kts | 170° |
| 2026-04-22 15:38 | 3.49189 | 39.76166 | 36866 ft | 467 kts | 170° |
| 2026-04-22 15:39 | 3.42792 | 39.77374 | 36866 ft | 467 kts | 170° |
| 2026-04-22 15:39 | 3.36382 | 39.78586 | 36863 ft | 468 kts | 170° |
| 2026-04-22 15:40 | 3.29986 | 39.79793 | 36860 ft | 468 kts | 170° |
| 2026-04-22 15:40 | 3.23586 | 39.81002 | 36860 ft | 468 kts | 170° |
| 2026-04-22 15:41 | 3.17183 | 39.82211 | 36854 ft | 468 kts | 170° |
| 2026-04-22 15:41 | 3.10810 | 39.83414 | 36858 ft | 468 kts | 170° |
| 2026-04-22 15:42 | 3.04401 | 39.84624 | 36854 ft | 468 kts | 170° |
| 2026-04-22 15:42 | 2.97999 | 39.85832 | 36848 ft | 468 kts | 170° |
| 2026-04-22 15:43 | 2.91588 | 39.87042 | 36853 ft | 468 kts | 170° |
| 2026-04-22 15:43 | 2.85218 | 39.88244 | 36853 ft | 468 kts | 170° |
| 2026-04-22 15:44 | 2.78809 | 39.89453 | 36852 ft | 468 kts | 170° |
| 2026-04-22 15:44 | 2.72402 | 39.90662 | 36854 ft | 468 kts | 170° |
| 2026-04-22 15:45 | 2.65997 | 39.91871 | 36849 ft | 468 kts | 170° |
| 2026-04-22 15:45 | 2.59590 | 39.93080 | 36844 ft | 467 kts | 170° |
| 2026-04-22 15:46 | 2.53194 | 39.94263 | 36844 ft | 467 kts | 171° |
| 2026-04-22 15:46 | 2.46794 | 39.95397 | 36845 ft | 466 kts | 171° |
| 2026-04-22 15:47 | 2.40411 | 39.96525 | 36839 ft | 466 kts | 171° |
| 2026-04-22 15:47 | 2.34065 | 39.97654 | 36843 ft | 465 kts | 171° |
| 2026-04-22 15:48 | 2.27688 | 39.98791 | 36837 ft | 465 kts | 171° |
| 2026-04-22 15:48 | 2.21318 | 39.99927 | 36839 ft | 464 kts | 171° |
| 2026-04-22 15:49 | 2.14952 | 40.01062 | 36835 ft | 464 kts | 171° |
| 2026-04-22 15:49 | 2.08637 | 40.02188 | 36837 ft | 464 kts | 171° |
| 2026-04-22 15:50 | 2.02281 | 40.03321 | 36821 ft | 464 kts | 171° |
| 2026-04-22 15:50 | 1.96058 | 40.04431 | 36806 ft | 464 kts | 171° |
| 2026-04-22 15:51 | 1.89694 | 40.05565 | 36794 ft | 464 kts | 171° |
| 2026-04-22 15:51 | 1.83334 | 40.06699 | 36779 ft | 464 kts | 171° |
| 2026-04-22 15:52 | 1.76970 | 40.07831 | 36776 ft | 464 kts | 172° |
| 2026-04-22 15:52 | 1.70543 | 40.08008 | 36786 ft | 462 kts | 186° |
| 2026-04-22 15:53 | 1.64141 | 40.07375 | 36774 ft | 462 kts | 187° |
| 2026-04-22 15:53 | 1.57775 | 40.06733 | 36787 ft | 462 kts | 186° |
| 2026-04-22 15:54 | 1.51330 | 40.06129 | 36801 ft | 462 kts | 186° |
| 2026-04-22 15:54 | 1.44968 | 40.05553 | 36815 ft | 462 kts | 186° |
| 2026-04-22 15:55 | 1.38545 | 40.04975 | 36826 ft | 462 kts | 186° |
| 2026-04-22 15:55 | 1.32148 | 40.04398 | 36834 ft | 461 kts | 186° |
| 2026-04-22 15:56 | 1.25750 | 40.03821 | 36831 ft | 461 kts | 186° |
| 2026-04-22 15:56 | 1.19399 | 40.03247 | 36834 ft | 460 kts | 186° |
| 2026-04-22 15:57 | 1.13021 | 40.02670 | 36836 ft | 460 kts | 186° |
| 2026-04-22 15:57 | 1.06644 | 40.02094 | 36837 ft | 459 kts | 186° |
| 2026-04-22 15:58 | 1.00267 | 40.01518 | 36834 ft | 459 kts | 186° |
| 2026-04-22 15:58 | 0.94987 | 40.01042 | 36835 ft | 458 kts | 186° |
| 2026-04-22 15:59 | 0.88635 | 40.00474 | 36835 ft | 458 kts | 186° |
| 2026-04-22 15:59 | 0.82285 | 39.99906 | 36837 ft | 457 kts | 186° |
| 2026-04-22 16:00 | 0.75990 | 39.99344 | 36827 ft | 456 kts | 187° |
| 2026-04-22 16:00 | 0.69663 | 39.98778 | 36837 ft | 456 kts | 186° |
| 2026-04-22 16:01 | 0.63327 | 39.98211 | 36845 ft | 457 kts | 186° |
| 2026-04-22 16:01 | 0.56988 | 39.97644 | 36841 ft | 458 kts | 186° |
| 2026-04-22 16:02 | 0.50615 | 39.97074 | 36839 ft | 458 kts | 186° |
| 2026-04-22 16:02 | 0.44257 | 39.96505 | 36842 ft | 458 kts | 186° |
| 2026-04-22 16:03 | 0.37951 | 39.95941 | 36843 ft | 457 kts | 186° |
| 2026-04-22 16:03 | 0.31616 | 39.95374 | 36844 ft | 456 kts | 186° |
| 2026-04-22 16:04 | 0.25298 | 39.94809 | 36844 ft | 455 kts | 186° |
| 2026-04-22 16:04 | 0.19000 | 39.94245 | 36845 ft | 453 kts | 186° |
| 2026-04-22 16:05 | 0.12713 | 39.93683 | 36846 ft | 452 kts | 186° |
| 2026-04-22 16:05 | 0.06481 | 39.93126 | 36849 ft | 452 kts | 186° |
| 2026-04-22 16:06 | 0.00224 | 39.92566 | 36851 ft | 451 kts | 186° |
| 2026-04-22 16:06 | -0.05967 | 39.92012 | 36857 ft | 450 kts | 186° |
| 2026-04-22 16:07 | -0.12206 | 39.91453 | 36855 ft | 450 kts | 186° |
| 2026-04-22 16:07 | -0.18446 | 39.90895 | 36857 ft | 450 kts | 186° |
| 2026-04-22 16:08 | -0.24685 | 39.90337 | 36855 ft | 450 kts | 186° |
| 2026-04-22 16:08 | -0.30926 | 39.89778 | 36853 ft | 450 kts | 186° |
| 2026-04-22 16:09 | -0.37144 | 39.89294 | 36844 ft | 450 kts | 184° |
| 2026-04-22 16:09 | -0.43407 | 39.88903 | 36843 ft | 450 kts | 184° |
| 2026-04-22 16:10 | -0.49675 | 39.88513 | 36843 ft | 451 kts | 184° |
| 2026-04-22 16:10 | -0.55925 | 39.88111 | 36843 ft | 451 kts | 184° |
| 2026-04-22 16:11 | -0.62149 | 39.87704 | 36848 ft | 451 kts | 184° |
| 2026-04-22 16:11 | -0.68409 | 39.87293 | 36859 ft | 451 kts | 184° |
| 2026-04-22 16:12 | -0.74691 | 39.86881 | 36865 ft | 451 kts | 184° |
| 2026-04-22 16:12 | -0.80948 | 39.86470 | 36873 ft | 451 kts | 184° |
| 2026-04-22 16:13 | -0.87204 | 39.86060 | 36864 ft | 450 kts | 184° |
| 2026-04-22 16:13 | -0.93464 | 39.85650 | 36874 ft | 450 kts | 184° |
| 2026-04-22 16:14 | -0.99682 | 39.85242 | 36872 ft | 449 kts | 184° |
| 2026-04-22 16:14 | -1.05927 | 39.84833 | 36873 ft | 449 kts | 184° |
| 2026-04-22 16:15 | -1.12156 | 39.84424 | 36871 ft | 448 kts | 184° |
| 2026-04-22 16:15 | -1.18388 | 39.84016 | 36879 ft | 448 kts | 184° |
| 2026-04-22 16:16 | -1.24613 | 39.83608 | 36874 ft | 447 kts | 184° |
| 2026-04-22 16:16 | -1.30828 | 39.83200 | 36876 ft | 447 kts | 184° |
| 2026-04-22 16:17 | -1.36999 | 39.82795 | 36879 ft | 447 kts | 184° |
| 2026-04-22 16:17 | -1.43200 | 39.82389 | 36881 ft | 446 kts | 184° |
| 2026-04-22 16:18 | -1.49408 | 39.81981 | 36878 ft | 446 kts | 184° |
| 2026-04-22 16:18 | -1.55597 | 39.81575 | 36884 ft | 446 kts | 184° |
| 2026-04-22 16:19 | -1.61790 | 39.81169 | 36885 ft | 446 kts | 184° |
| 2026-04-22 16:19 | -1.67986 | 39.80763 | 36882 ft | 446 kts | 184° |
| 2026-04-22 16:20 | -1.74175 | 39.80357 | 36888 ft | 446 kts | 183° |
| 2026-04-22 16:20 | -1.80348 | 39.79949 | 36889 ft | 446 kts | 184° |
| 2026-04-22 16:21 | -1.86545 | 39.79518 | 36889 ft | 446 kts | 184° |
| 2026-04-22 16:21 | -1.92746 | 39.79083 | 36893 ft | 446 kts | 184° |
| 2026-04-22 16:22 | -1.98997 | 39.78646 | 35917 ft | 451 kts | 183° |
| 2026-04-22 16:22 | -2.02135 | 39.78427 | 35248 ft | 452 kts | 183° |
| 2026-04-22 16:22 | -2.05273 | 39.78209 | 34554 ft | 454 kts | 183° |
| 2026-04-22 16:23 | -2.11579 | 39.77770 | 32986 ft | 459 kts | 183° |
| 2026-04-22 16:23 | -2.14755 | 39.77549 | 32414 ft | 456 kts | 182° |
| 2026-04-22 16:23 | -2.17920 | 39.77328 | 31863 ft | 453 kts | 182° |
| 2026-04-22 16:24 | -2.21061 | 39.77109 | 31326 ft | 450 kts | 182° |
| 2026-04-22 16:24 | -2.27285 | 39.76675 | 30238 ft | 446 kts | 182° |
| 2026-04-22 16:24 | -2.30374 | 39.76460 | 29653 ft | 445 kts | 182° |
| 2026-04-22 16:25 | -2.33452 | 39.76246 | 29077 ft | 441 kts | 182° |
| 2026-04-22 16:25 | -2.39533 | 39.75823 | 27981 ft | 434 kts | 182° |
| 2026-04-22 16:25 | -2.42534 | 39.75614 | 27448 ft | 431 kts | 182° |
| 2026-04-22 16:26 | -2.45521 | 39.75405 | 26933 ft | 427 kts | 182° |
| 2026-04-22 16:26 | -2.48440 | 39.75202 | 26393 ft | 425 kts | 182° |
| 2026-04-22 16:26 | -2.51426 | 39.74994 | 25854 ft | 422 kts | 182° |
| 2026-04-22 16:26 | -2.54309 | 39.74793 | 25324 ft | 420 kts | 182° |
| 2026-04-22 16:27 | -2.57224 | 39.74590 | 24801 ft | 418 kts | 182° |
| 2026-04-22 16:27 | -2.60121 | 39.74388 | 24276 ft | 417 kts | 182° |
| 2026-04-22 16:27 | -2.63016 | 39.74242 | 23760 ft | 414 kts | 177° |
| 2026-04-22 16:27 | -2.65865 | 39.74400 | 23337 ft | 407 kts | 173° |
| 2026-04-22 16:28 | -2.68674 | 39.74679 | 22890 ft | 401 kts | 172° |
| 2026-04-22 16:28 | -2.71432 | 39.74988 | 22408 ft | 397 kts | 172° |
| 2026-04-22 16:28 | -2.74181 | 39.75294 | 21895 ft | 394 kts | 172° |
| 2026-04-22 16:28 | -2.76911 | 39.75584 | 21383 ft | 392 kts | 172° |
| 2026-04-22 16:29 | -2.79583 | 39.75855 | 20900 ft | 389 kts | 172° |
| 2026-04-22 16:29 | -2.82267 | 39.76116 | 20441 ft | 386 kts | 172° |
| 2026-04-22 16:29 | -2.84932 | 39.76370 | 19981 ft | 383 kts | 173° |
| 2026-04-22 16:29 | -2.87580 | 39.76619 | 19513 ft | 381 kts | 173° |
| 2026-04-22 16:30 | -2.89353 | 39.76784 | 19200 ft | 379 kts | 173° |
| 2026-04-22 16:30 | -2.92826 | 39.77107 | 18613 ft | 376 kts | 173° |
| 2026-04-22 16:30 | -2.95422 | 39.77349 | 18213 ft | 373 kts | 173° |
| 2026-04-22 16:30 | -2.98003 | 39.77589 | 17730 ft | 370 kts | 173° |
| 2026-04-22 16:31 | -3.00559 | 39.77827 | 17243 ft | 367 kts | 173° |
| 2026-04-22 16:31 | -3.03061 | 39.78060 | 16790 ft | 364 kts | 173° |
| 2026-04-22 16:31 | -3.05579 | 39.78295 | 16343 ft | 361 kts | 173° |
| 2026-04-22 16:31 | -3.08068 | 39.78526 | 15901 ft | 358 kts | 173° |
| 2026-04-22 16:32 | -3.10543 | 39.78757 | 15463 ft | 355 kts | 173° |
| 2026-04-22 16:32 | -3.13001 | 39.78986 | 15029 ft | 353 kts | 173° |
| 2026-04-22 16:32 | -3.15446 | 39.79214 | 14601 ft | 350 kts | 173° |
| 2026-04-22 16:32 | -3.17856 | 39.79439 | 14192 ft | 348 kts | 173° |
| 2026-04-22 16:33 | -3.20264 | 39.79663 | 13776 ft | 346 kts | 173° |
| 2026-04-22 16:33 | -3.22646 | 39.79885 | 13308 ft | 343 kts | 173° |
| 2026-04-22 16:33 | -3.25021 | 39.80106 | 12865 ft | 340 kts | 173° |
| 2026-04-22 16:33 | -3.27374 | 39.80326 | 12432 ft | 338 kts | 173° |
| 2026-04-22 16:34 | -3.29705 | 39.80543 | 12009 ft | 335 kts | 173° |
| 2026-04-22 16:34 | -3.32016 | 39.80758 | 11582 ft | 333 kts | 173° |
| 2026-04-22 16:34 | -3.34330 | 39.80974 | 11371 ft | 323 kts | 173° |
| 2026-04-22 16:34 | -3.36497 | 39.81175 | 11292 ft | 311 kts | 173° |
| 2026-04-22 16:35 | -3.38612 | 39.81372 | 11214 ft | 299 kts | 173° |
| 2026-04-22 16:35 | -3.40643 | 39.81562 | 11138 ft | 288 kts | 173° |
| 2026-04-22 16:35 | -3.42614 | 39.81745 | 10942 ft | 282 kts | 173° |
| 2026-04-22 16:35 | -3.44561 | 39.81927 | 10661 ft | 280 kts | 173° |
| 2026-04-22 16:36 | -3.46499 | 39.82108 | 10365 ft | 279 kts | 173° |
| 2026-04-22 16:36 | -3.48440 | 39.82071 | 10062 ft | 280 kts | 189° |
| 2026-04-22 16:36 | -3.50338 | 39.81636 | 9795 ft | 279 kts | 192° |
| 2026-04-22 16:36 | -3.52209 | 39.81168 | 9503 ft | 277 kts | 192° |
| 2026-04-22 16:37 | -3.54072 | 39.80701 | 9223 ft | 275 kts | 192° |
| 2026-04-22 16:37 | -3.55932 | 39.80242 | 8916 ft | 273 kts | 192° |
| 2026-04-22 16:37 | -3.57777 | 39.79793 | 8631 ft | 271 kts | 191° |
| 2026-04-22 16:37 | -3.59605 | 39.79352 | 8357 ft | 269 kts | 191° |
| 2026-04-22 16:38 | -3.61426 | 39.78915 | 8074 ft | 268 kts | 191° |
| 2026-04-22 16:38 | -3.63233 | 39.78483 | 7800 ft | 266 kts | 191° |
| 2026-04-22 16:38 | -3.65011 | 39.78059 | 7525 ft | 265 kts | 191° |
| 2026-04-22 16:38 | -3.66797 | 39.77633 | 7241 ft | 263 kts | 191° |
| 2026-04-22 16:39 | -3.68573 | 39.77210 | 6982 ft | 261 kts | 191° |
| 2026-04-22 16:39 | -3.70220 | 39.76819 | 6739 ft | 260 kts | 190° |
| 2026-04-22 16:39 | -3.71892 | 39.76421 | 6496 ft | 258 kts | 190° |
| 2026-04-22 16:40 | -3.73635 | 39.76004 | 6220 ft | 254 kts | 192° |
| 2026-04-22 16:40 | -3.75201 | 39.75355 | 6040 ft | 232 kts | 205° |
| 2026-04-22 16:40 | -3.77695 | 39.73903 | 5680 ft | 187 kts | 205° |
| 2026-04-22 16:41 | -3.78436 | 39.73475 | 5572 ft | 174 kts | 205° |
| 2026-04-22 16:41 | -3.79469 | 39.72885 | 5263 ft | 170 kts | 204° |
| 2026-04-22 16:41 | -3.80473 | 39.72316 | 5061 ft | 159 kts | 204° |
| 2026-04-22 16:41 | -3.81428 | 39.71777 | 4739 ft | 157 kts | 204° |
| 2026-04-22 16:42 | -3.82375 | 39.71244 | 4395 ft | 155 kts | 204° |
| 2026-04-22 16:42 | -3.83298 | 39.70726 | 4110 ft | 151 kts | 205° |
| 2026-04-22 16:42 | -3.84220 | 39.70209 | 3971 ft | 156 kts | 205° |
| 2026-04-22 16:42 | -3.85195 | 39.69664 | 3721 ft | 157 kts | 205° |
| 2026-04-22 16:43 | -3.86154 | 39.69127 | 3551 ft | 159 kts | 205° |
| 2026-04-22 16:43 | -3.87119 | 39.68587 | 3367 ft | 159 kts | 205° |
| 2026-04-22 16:43 | -3.88081 | 39.68048 | 3176 ft | 158 kts | 205° |
| 2026-04-22 16:43 | -3.89039 | 39.67513 | 2993 ft | 157 kts | 205° |
| 2026-04-22 16:44 | -3.89986 | 39.66982 | 2816 ft | 155 kts | 205° |
| 2026-04-22 16:44 | -3.90916 | 39.66462 | 2635 ft | 155 kts | 205° |
| 2026-04-22 16:44 | -3.91863 | 39.65932 | 2413 ft | 155 kts | 206° |
| 2026-04-22 16:44 | -3.92809 | 39.65403 | 2202 ft | 156 kts | 206° |
| 2026-04-22 16:45 | -3.93748 | 39.64878 | 1985 ft | 153 kts | 206° |
| 2026-04-22 16:45 | -3.94683 | 39.64355 | 1766 ft | 157 kts | 207° |
| 2026-04-22 16:45 | -3.95642 | 39.63818 | 1552 ft | 158 kts | 208° |
| 2026-04-22 16:45 | -3.96601 | 39.63273 | 1358 ft | 161 kts | 208° |
| 2026-04-22 16:46 | -3.97586 | 39.62709 | 1148 ft | 166 kts | 208° |
| 2026-04-22 16:46 | -3.98602 | 39.62158 | 942 ft | 171 kts | 208° |
| 2026-04-22 16:46 | -3.99647 | 39.61589 | 744 ft | 170 kts | 210° |
| 2026-04-22 16:46 | -4.00649 | 39.61020 | 457 ft | 161 kts | 211° |
| 2026-04-22 16:47 | -4.01593 | 39.60487 | 211 ft | 150 kts | 210° |
| 2026-04-22 16:47 | -4.02355 | 39.60061 | 206 ft | 95 kts | 208° |
| 2026-04-22 16:47 | -4.02758 | 39.59836 | 209 ft | 43 kts | 209° |
| 2026-04-22 16:47 | -4.02939 | 39.59735 | 207 ft | 25 kts | 209° |
| 2026-04-22 16:48 | -4.03085 | 39.59653 | 207 ft | 23 kts | 209° |
| 2026-04-22 16:48 | -4.03225 | 39.59575 | 213 ft | 22 kts | 209° |
| 2026-04-22 16:48 | -4.03330 | 39.59613 | 206 ft | 22 kts | 77° |
| 2026-04-22 16:48 | -4.03286 | 39.59739 | 204 ft | 17 kts | 33° |
| 2026-04-22 16:49 | -4.03194 | 39.59790 | 208 ft | 13 kts | 28° |
| 2026-04-22 16:49 | -4.03117 | 39.59833 | 210 ft | 13 kts | 29° |
| 2026-04-22 16:49 | -4.03042 | 39.59876 | 211 ft | 12 kts | 29° |
| 2026-04-22 16:49 | -4.02972 | 39.59922 | 204 ft | 12 kts | 58° |
| 2026-04-22 16:50 | -4.02998 | 39.60012 | 207 ft | 15 kts | 119° |
| 2026-04-22 16:50 | -4.03029 | 39.60069 | 210 ft | 9 kts | 119° |
| 2026-04-22 16:50 | -4.03059 | 39.60123 | 212 ft | 9 kts | 119° |
| 2026-04-22 16:50 | -4.03080 | 39.60179 | 211 ft | 9 kts | 97° |
| 2026-04-22 16:51 | -4.03103 | 39.60232 | 210 ft | 8 kts | 118° |
| 2026-04-22 16:51 | -4.03116 | 39.60255 | 212 ft | 0 kts | 119° |